<?xml version="1.0" encoding="UTF-8" standalone="no" ?>
<gpx xmlns="http://www.topografix.com/GPX/1/1" xmlns:xsi="http://www.w3.org/2001/XMLSchema-instance" xsi:schemaLocation="http://www.topografix.com/GPX/1/1 http://www.topografix.com/GPX/1/1/gpx.xsd" version="1.1" creator="VisuGPX - https://www.visugpx.com">
  <metadata>
    <name>Lacs d'Estom-Soubiran</name>
  </metadata>
  <trk>
    <name><![CDATA[1220229-Lacs Estom Soubiran]]></name>
    <trkseg>
      <trkpt lat="42.85373" lon="-0.09759">
        <ele>1371</ele>
        <time>2018-10-27T19:35:50Z</time>
      </trkpt>
      <trkpt lat="42.85291" lon="-0.09759">
        <ele>1374</ele>
        <time>2018-10-27T19:36:50Z</time>
      </trkpt>
      <trkpt lat="42.85201" lon="-0.0977">
        <ele>1378</ele>
        <time>2018-10-27T19:37:50Z</time>
      </trkpt>
      <trkpt lat="42.85129" lon="-0.09785">
        <ele>1379</ele>
        <time>2018-10-27T19:38:50Z</time>
      </trkpt>
      <trkpt lat="42.85064" lon="-0.09785">
        <ele>1380</ele>
        <time>2018-10-27T19:39:50Z</time>
      </trkpt>
      <trkpt lat="42.85" lon="-0.09759">
        <ele>1384</ele>
        <time>2018-10-27T19:40:50Z</time>
      </trkpt>
      <trkpt lat="42.84924" lon="-0.09728">
        <ele>1390</ele>
        <time>2018-10-27T19:41:50Z</time>
      </trkpt>
      <trkpt lat="42.84859" lon="-0.09681">
        <ele>1396</ele>
        <time>2018-10-27T19:42:50Z</time>
      </trkpt>
      <trkpt lat="42.84802" lon="-0.09665">
        <ele>1398</ele>
        <time>2018-10-27T19:43:50Z</time>
      </trkpt>
      <trkpt lat="42.84755" lon="-0.0965">
        <ele>1403</ele>
        <time>2018-10-27T19:44:50Z</time>
      </trkpt>
      <trkpt lat="42.84716" lon="-0.09629">
        <ele>1408</ele>
        <time>2018-10-27T19:45:50Z</time>
      </trkpt>
      <trkpt lat="42.84629" lon="-0.09629">
        <ele>1411</ele>
        <time>2018-10-27T19:46:50Z</time>
      </trkpt>
      <trkpt lat="42.84565" lon="-0.09629">
        <ele>1417</ele>
        <time>2018-10-27T19:47:50Z</time>
      </trkpt>
      <trkpt lat="42.84514" lon="-0.09634">
        <ele>1422</ele>
        <time>2018-10-27T19:48:50Z</time>
      </trkpt>
      <trkpt lat="42.84435" lon="-0.0965">
        <ele>1434</ele>
        <time>2018-10-27T19:49:50Z</time>
      </trkpt>
      <trkpt lat="42.84364" lon="-0.09671">
        <ele>1439</ele>
        <time>2018-10-27T19:50:50Z</time>
      </trkpt>
      <trkpt lat="42.8431" lon="-0.0966">
        <ele>1446</ele>
        <time>2018-10-27T19:51:50Z</time>
      </trkpt>
      <trkpt lat="42.84238" lon="-0.0966">
        <ele>1449</ele>
        <time>2018-10-27T19:52:50Z</time>
      </trkpt>
      <trkpt lat="42.84198" lon="-0.09686">
        <ele>1452</ele>
        <time>2018-10-27T19:53:50Z</time>
      </trkpt>
      <trkpt lat="42.84173" lon="-0.09749">
        <ele>1448</ele>
        <time>2018-10-27T19:54:50Z</time>
      </trkpt>
      <trkpt lat="42.84119" lon="-0.09697">
        <ele>1461</ele>
        <time>2018-10-27T19:55:50Z</time>
      </trkpt>
      <trkpt lat="42.84083" lon="-0.09665">
        <ele>1468</ele>
        <time>2018-10-27T19:56:50Z</time>
      </trkpt>
      <trkpt lat="42.84015" lon="-0.09655">
        <ele>1472</ele>
        <time>2018-10-27T19:57:50Z</time>
      </trkpt>
      <trkpt lat="42.83961" lon="-0.09618">
        <ele>1478</ele>
        <time>2018-10-27T19:58:50Z</time>
      </trkpt>
      <trkpt lat="42.83893" lon="-0.09608">
        <ele>1476</ele>
        <time>2018-10-27T19:59:50Z</time>
      </trkpt>
      <trkpt lat="42.83842" lon="-0.09608">
        <ele>1475</ele>
        <time>2018-10-27T20:00:50Z</time>
      </trkpt>
      <trkpt lat="42.83763" lon="-0.09603">
        <ele>1482</ele>
        <time>2018-10-27T20:01:50Z</time>
      </trkpt>
      <trkpt lat="42.83717" lon="-0.0966">
        <ele>1477</ele>
        <time>2018-10-27T20:02:50Z</time>
      </trkpt>
      <trkpt lat="42.83656" lon="-0.09665">
        <ele>1481</ele>
        <time>2018-10-27T20:03:50Z</time>
      </trkpt>
      <trkpt lat="42.83602" lon="-0.09655">
        <ele>1488</ele>
        <time>2018-10-27T20:04:50Z</time>
      </trkpt>
      <trkpt lat="42.83523" lon="-0.09655">
        <ele>1489</ele>
        <time>2018-10-27T20:05:50Z</time>
      </trkpt>
      <trkpt lat="42.83472" lon="-0.09618">
        <ele>1497</ele>
        <time>2018-10-27T20:06:50Z</time>
      </trkpt>
      <trkpt lat="42.83415" lon="-0.09603">
        <ele>1501</ele>
        <time>2018-10-27T20:07:50Z</time>
      </trkpt>
      <trkpt lat="42.83321" lon="-0.09598">
        <ele>1505</ele>
        <time>2018-10-27T20:08:50Z</time>
      </trkpt>
      <trkpt lat="42.8326" lon="-0.09598">
        <ele>1509</ele>
        <time>2018-10-27T20:09:50Z</time>
      </trkpt>
      <trkpt lat="42.83206" lon="-0.09582">
        <ele>1517</ele>
        <time>2018-10-27T20:10:50Z</time>
      </trkpt>
      <trkpt lat="42.83142" lon="-0.09587">
        <ele>1524</ele>
        <time>2018-10-27T20:11:50Z</time>
      </trkpt>
      <trkpt lat="42.8307" lon="-0.09603">
        <ele>1531</ele>
        <time>2018-10-27T20:12:50Z</time>
      </trkpt>
      <trkpt lat="42.8302" lon="-0.09639">
        <ele>1529</ele>
        <time>2018-10-27T20:13:50Z</time>
      </trkpt>
      <trkpt lat="42.82973" lon="-0.09655">
        <ele>1528</ele>
        <time>2018-10-27T20:14:50Z</time>
      </trkpt>
      <trkpt lat="42.82883" lon="-0.09639">
        <ele>1538</ele>
        <time>2018-10-27T20:15:50Z</time>
      </trkpt>
      <trkpt lat="42.82829" lon="-0.09639">
        <ele>1545</ele>
        <time>2018-10-27T20:16:50Z</time>
      </trkpt>
      <trkpt lat="42.82775" lon="-0.09587">
        <ele>1551</ele>
        <time>2018-10-27T20:17:50Z</time>
      </trkpt>
      <trkpt lat="42.82729" lon="-0.09577">
        <ele>1551</ele>
        <time>2018-10-27T20:18:50Z</time>
      </trkpt>
      <trkpt lat="42.82664" lon="-0.09608">
        <ele>1547</ele>
        <time>2018-10-27T20:19:50Z</time>
      </trkpt>
      <trkpt lat="42.82599" lon="-0.09629">
        <ele>1553</ele>
        <time>2018-10-27T20:20:50Z</time>
      </trkpt>
      <trkpt lat="42.82545" lon="-0.09598">
        <ele>1555</ele>
        <time>2018-10-27T20:21:50Z</time>
      </trkpt>
      <trkpt lat="42.82481" lon="-0.09608">
        <ele>1556</ele>
        <time>2018-10-27T20:22:50Z</time>
      </trkpt>
      <trkpt lat="42.8242" lon="-0.09634">
        <ele>1560</ele>
        <time>2018-10-27T20:23:50Z</time>
      </trkpt>
      <trkpt lat="42.82384" lon="-0.09645">
        <ele>1561</ele>
        <time>2018-10-27T20:24:50Z</time>
      </trkpt>
      <trkpt lat="42.82373" lon="-0.09686">
        <ele>1562</ele>
        <time>2018-10-27T20:25:50Z</time>
      </trkpt>
      <trkpt lat="42.82319" lon="-0.09723">
        <ele>1565</ele>
        <time>2018-10-27T20:26:50Z</time>
      </trkpt>
      <trkpt lat="42.82261" lon="-0.09728">
        <ele>1565</ele>
        <time>2018-10-27T20:27:50Z</time>
      </trkpt>
      <trkpt lat="42.82222" lon="-0.09749">
        <ele>1567</ele>
        <time>2018-10-27T20:28:50Z</time>
      </trkpt>
      <trkpt lat="42.82175" lon="-0.09775">
        <ele>1575</ele>
        <time>2018-10-27T20:29:50Z</time>
      </trkpt>
      <trkpt lat="42.82096" lon="-0.09791">
        <ele>1585</ele>
        <time>2018-10-27T20:30:50Z</time>
      </trkpt>
      <trkpt lat="42.82049" lon="-0.09806">
        <ele>1594</ele>
        <time>2018-10-27T20:31:50Z</time>
      </trkpt>
      <trkpt lat="42.81999" lon="-0.09806">
        <ele>1602</ele>
        <time>2018-10-27T20:32:50Z</time>
      </trkpt>
      <trkpt lat="42.81956" lon="-0.09848">
        <ele>1610</ele>
        <time>2018-10-27T20:33:50Z</time>
      </trkpt>
      <trkpt lat="42.81895" lon="-0.09843">
        <ele>1613</ele>
        <time>2018-10-27T20:34:50Z</time>
      </trkpt>
      <trkpt lat="42.81866" lon="-0.09806">
        <ele>1613</ele>
        <time>2018-10-27T20:35:50Z</time>
      </trkpt>
      <trkpt lat="42.81841" lon="-0.09801">
        <ele>1615</ele>
        <time>2018-10-27T20:36:50Z</time>
      </trkpt>
      <trkpt lat="42.81816" lon="-0.09801">
        <ele>1618</ele>
        <time>2018-10-27T20:37:50Z</time>
      </trkpt>
      <trkpt lat="42.81762" lon="-0.09832">
        <ele>1622</ele>
        <time>2018-10-27T20:38:50Z</time>
      </trkpt>
      <trkpt lat="42.81708" lon="-0.09832">
        <ele>1627</ele>
        <time>2018-10-27T20:39:50Z</time>
      </trkpt>
      <trkpt lat="42.81661" lon="-0.09832">
        <ele>1632</ele>
        <time>2018-10-27T20:40:50Z</time>
      </trkpt>
      <trkpt lat="42.81629" lon="-0.09874">
        <ele>1641</ele>
        <time>2018-10-27T20:41:50Z</time>
      </trkpt>
      <trkpt lat="42.8159" lon="-0.09874">
        <ele>1648</ele>
        <time>2018-10-27T20:42:50Z</time>
      </trkpt>
      <trkpt lat="42.81539" lon="-0.09864">
        <ele>1666</ele>
        <time>2018-10-27T20:43:50Z</time>
      </trkpt>
      <trkpt lat="42.815" lon="-0.09848">
        <ele>1679</ele>
        <time>2018-10-27T20:44:50Z</time>
      </trkpt>
      <trkpt lat="42.81467" lon="-0.09874">
        <ele>1695</ele>
        <time>2018-10-27T20:45:50Z</time>
      </trkpt>
      <trkpt lat="42.81435" lon="-0.09874">
        <ele>1707</ele>
        <time>2018-10-27T20:46:50Z</time>
      </trkpt>
      <trkpt lat="42.81403" lon="-0.09885">
        <ele>1717</ele>
        <time>2018-10-27T20:47:50Z</time>
      </trkpt>
      <trkpt lat="42.81352" lon="-0.09874">
        <ele>1722</ele>
        <time>2018-10-27T20:48:50Z</time>
      </trkpt>
      <trkpt lat="42.81327" lon="-0.09895">
        <ele>1726</ele>
        <time>2018-10-27T20:49:50Z</time>
      </trkpt>
      <trkpt lat="42.81295" lon="-0.099">
        <ele>1730</ele>
        <time>2018-10-27T20:50:50Z</time>
      </trkpt>
      <trkpt lat="42.81245" lon="-0.099">
        <ele>1735</ele>
        <time>2018-10-27T20:51:50Z</time>
      </trkpt>
      <trkpt lat="42.81198" lon="-0.09937">
        <ele>1748</ele>
        <time>2018-10-27T20:52:50Z</time>
      </trkpt>
      <trkpt lat="42.81173" lon="-0.09958">
        <ele>1757</ele>
        <time>2018-10-27T20:53:50Z</time>
      </trkpt>
      <trkpt lat="42.81148" lon="-0.09973">
        <ele>1765</ele>
        <time>2018-10-27T20:54:50Z</time>
      </trkpt>
      <trkpt lat="42.81112" lon="-0.09953">
        <ele>1766</ele>
        <time>2018-10-27T20:55:50Z</time>
      </trkpt>
      <trkpt lat="42.81072" lon="-0.09947">
        <ele>1770</ele>
        <time>2018-10-27T20:56:50Z</time>
      </trkpt>
      <trkpt lat="42.81022" lon="-0.09958">
        <ele>1777</ele>
        <time>2018-10-27T20:57:50Z</time>
      </trkpt>
      <trkpt lat="42.80979" lon="-0.09994">
        <ele>1787</ele>
        <time>2018-10-27T20:58:50Z</time>
      </trkpt>
      <trkpt lat="42.80954" lon="-0.1002">
        <ele>1796</ele>
        <time>2018-10-27T20:59:50Z</time>
      </trkpt>
      <trkpt lat="42.8091" lon="-0.10015">
        <ele>1799</ele>
        <time>2018-10-27T21:00:50Z</time>
      </trkpt>
      <trkpt lat="42.80892" lon="-0.09979">
        <ele>1797</ele>
        <time>2018-10-27T21:01:50Z</time>
      </trkpt>
      <trkpt lat="42.8086" lon="-0.09984">
        <ele>1802</ele>
        <time>2018-10-27T21:02:50Z</time>
      </trkpt>
      <trkpt lat="42.80835" lon="-0.09963">
        <ele>1805</ele>
        <time>2018-10-27T21:03:50Z</time>
      </trkpt>
      <trkpt lat="42.80803" lon="-0.09926">
        <ele>1806</ele>
        <time>2018-10-27T21:04:50Z</time>
      </trkpt>
      <trkpt lat="42.80777" lon="-0.09994">
        <ele>1811</ele>
        <time>2018-10-27T21:05:50Z</time>
      </trkpt>
      <trkpt lat="42.80749" lon="-0.10067">
        <ele>1825</ele>
        <time>2018-10-27T21:06:50Z</time>
      </trkpt>
      <trkpt lat="42.80749" lon="-0.1014">
        <ele>1839</ele>
        <time>2018-10-27T21:07:50Z</time>
      </trkpt>
      <trkpt lat="42.80709" lon="-0.10198">
        <ele>1846</ele>
        <time>2018-10-27T21:08:50Z</time>
      </trkpt>
      <trkpt lat="42.80688" lon="-0.10287">
        <ele>1877</ele>
        <time>2018-10-27T21:09:50Z</time>
      </trkpt>
      <trkpt lat="42.80716" lon="-0.10281">
        <ele>1882</ele>
        <time>2018-10-27T21:10:50Z</time>
      </trkpt>
      <trkpt lat="42.80662" lon="-0.10344">
        <ele>1898</ele>
        <time>2018-10-27T21:11:50Z</time>
      </trkpt>
      <trkpt lat="42.80605" lon="-0.10391">
        <ele>1910</ele>
        <time>2018-10-27T21:12:50Z</time>
      </trkpt>
      <trkpt lat="42.80547" lon="-0.10433">
        <ele>1921</ele>
        <time>2018-10-27T21:13:50Z</time>
      </trkpt>
      <trkpt lat="42.80497" lon="-0.10459">
        <ele>1925</ele>
        <time>2018-10-27T21:14:50Z</time>
      </trkpt>
      <trkpt lat="42.80454" lon="-0.10501">
        <ele>1945</ele>
        <time>2018-10-27T21:15:50Z</time>
      </trkpt>
      <trkpt lat="42.80411" lon="-0.10501">
        <ele>1940</ele>
        <time>2018-10-27T21:16:50Z</time>
      </trkpt>
      <trkpt lat="42.80346" lon="-0.10501">
        <ele>1930</ele>
        <time>2018-10-27T21:17:50Z</time>
      </trkpt>
      <trkpt lat="42.80361" lon="-0.10532">
        <ele>1947</ele>
        <time>2018-10-27T21:18:50Z</time>
      </trkpt>
      <trkpt lat="42.80368" lon="-0.10584">
        <ele>1972</ele>
        <time>2018-10-27T21:19:50Z</time>
      </trkpt>
      <trkpt lat="42.80332" lon="-0.1061">
        <ele>1980</ele>
        <time>2018-10-27T21:20:50Z</time>
      </trkpt>
      <trkpt lat="42.80274" lon="-0.10642">
        <ele>1991</ele>
        <time>2018-10-27T21:21:50Z</time>
      </trkpt>
      <trkpt lat="42.80242" lon="-0.10683">
        <ele>2009</ele>
        <time>2018-10-27T21:22:50Z</time>
      </trkpt>
      <trkpt lat="42.80217" lon="-0.10709">
        <ele>2019</ele>
        <time>2018-10-27T21:23:50Z</time>
      </trkpt>
      <trkpt lat="42.80188" lon="-0.10741">
        <ele>2026</ele>
        <time>2018-10-27T21:24:50Z</time>
      </trkpt>
      <trkpt lat="42.80138" lon="-0.10777">
        <ele>2033</ele>
        <time>2018-10-27T21:25:50Z</time>
      </trkpt>
      <trkpt lat="42.80098" lon="-0.10814">
        <ele>2044</ele>
        <time>2018-10-27T21:26:50Z</time>
      </trkpt>
      <trkpt lat="42.80059" lon="-0.10845">
        <ele>2050</ele>
        <time>2018-10-27T21:27:50Z</time>
      </trkpt>
      <trkpt lat="42.80016" lon="-0.10871">
        <ele>2054</ele>
        <time>2018-10-27T21:28:50Z</time>
      </trkpt>
      <trkpt lat="42.79969" lon="-0.10897">
        <ele>2052</ele>
        <time>2018-10-27T21:29:50Z</time>
      </trkpt>
      <trkpt lat="42.79919" lon="-0.10897">
        <ele>2023</ele>
        <time>2018-10-27T21:30:50Z</time>
      </trkpt>
      <trkpt lat="42.79886" lon="-0.10981">
        <ele>2065</ele>
        <time>2018-10-27T21:31:50Z</time>
      </trkpt>
      <trkpt lat="42.7985" lon="-0.11038">
        <ele>2072</ele>
        <time>2018-10-27T21:32:50Z</time>
      </trkpt>
      <trkpt lat="42.79804" lon="-0.11091">
        <ele>2078</ele>
        <time>2018-10-27T21:33:50Z</time>
      </trkpt>
      <trkpt lat="42.79761" lon="-0.11153">
        <ele>2092</ele>
        <time>2018-10-27T21:34:50Z</time>
      </trkpt>
      <trkpt lat="42.79717" lon="-0.11195">
        <ele>2104</ele>
        <time>2018-10-27T21:35:50Z</time>
      </trkpt>
      <trkpt lat="42.79707" lon="-0.11237">
        <ele>2114</ele>
        <time>2018-10-27T21:36:50Z</time>
      </trkpt>
      <trkpt lat="42.79671" lon="-0.11263">
        <ele>2113</ele>
        <time>2018-10-27T21:37:50Z</time>
      </trkpt>
      <trkpt lat="42.79631" lon="-0.11289">
        <ele>2125</ele>
        <time>2018-10-27T21:38:50Z</time>
      </trkpt>
      <trkpt lat="42.79638" lon="-0.11211">
        <ele>2118</ele>
        <time>2018-10-27T21:39:50Z</time>
      </trkpt>
      <trkpt lat="42.79617" lon="-0.11247">
        <ele>2124</ele>
        <time>2018-10-27T21:40:50Z</time>
      </trkpt>
      <trkpt lat="42.7961" lon="-0.11205">
        <ele>2132</ele>
        <time>2018-10-27T21:41:50Z</time>
      </trkpt>
      <trkpt lat="42.79577" lon="-0.11237">
        <ele>2141</ele>
        <time>2018-10-27T21:42:50Z</time>
      </trkpt>
      <trkpt lat="42.79556" lon="-0.11247">
        <ele>2154</ele>
        <time>2018-10-27T21:43:50Z</time>
      </trkpt>
      <trkpt lat="42.79588" lon="-0.11169">
        <ele>2150</ele>
        <time>2018-10-27T21:44:50Z</time>
      </trkpt>
      <trkpt lat="42.79531" lon="-0.112">
        <ele>2179</ele>
        <time>2018-10-27T21:45:50Z</time>
      </trkpt>
      <trkpt lat="42.79549" lon="-0.11148">
        <ele>2177</ele>
        <time>2018-10-27T21:46:50Z</time>
      </trkpt>
      <trkpt lat="42.79549" lon="-0.1108">
        <ele>2188</ele>
        <time>2018-10-27T21:47:50Z</time>
      </trkpt>
      <trkpt lat="42.79534" lon="-0.11038">
        <ele>2193</ele>
        <time>2018-10-27T21:48:50Z</time>
      </trkpt>
      <trkpt lat="42.79513" lon="-0.10991">
        <ele>2197</ele>
        <time>2018-10-27T21:49:50Z</time>
      </trkpt>
      <trkpt lat="42.79484" lon="-0.10965">
        <ele>2203</ele>
        <time>2018-10-27T21:50:50Z</time>
      </trkpt>
      <trkpt lat="42.7943" lon="-0.10944">
        <ele>2231</ele>
        <time>2018-10-27T21:51:50Z</time>
      </trkpt>
      <trkpt lat="42.79408" lon="-0.10892">
        <ele>2218</ele>
        <time>2018-10-27T21:52:50Z</time>
      </trkpt>
      <trkpt lat="42.79369" lon="-0.10845">
        <ele>2215</ele>
        <time>2018-10-27T21:53:50Z</time>
      </trkpt>
      <trkpt lat="42.79337" lon="-0.10756">
        <ele>2202</ele>
        <time>2018-10-27T21:54:50Z</time>
      </trkpt>
      <trkpt lat="42.79322" lon="-0.10683">
        <ele>2208</ele>
        <time>2018-10-27T21:55:50Z</time>
      </trkpt>
      <trkpt lat="42.79286" lon="-0.1061">
        <ele>2216</ele>
        <time>2018-10-27T21:56:50Z</time>
      </trkpt>
      <trkpt lat="42.79275" lon="-0.10532">
        <ele>2204</ele>
        <time>2018-10-27T21:57:50Z</time>
      </trkpt>
      <trkpt lat="42.79218" lon="-0.10506">
        <ele>2224</ele>
        <time>2018-10-27T21:58:50Z</time>
      </trkpt>
      <trkpt lat="42.79175" lon="-0.10448">
        <ele>2230</ele>
        <time>2018-10-27T21:59:50Z</time>
      </trkpt>
      <trkpt lat="42.79204" lon="-0.10349">
        <ele>2230</ele>
        <time>2018-10-27T22:00:50Z</time>
      </trkpt>
      <trkpt lat="42.79222" lon="-0.10276">
        <ele>2238</ele>
        <time>2018-10-27T22:01:50Z</time>
      </trkpt>
      <trkpt lat="42.7924" lon="-0.10187">
        <ele>2251</ele>
        <time>2018-10-27T22:02:50Z</time>
      </trkpt>
      <trkpt lat="42.79211" lon="-0.1012">
        <ele>2258</ele>
        <time>2018-10-27T22:03:50Z</time>
      </trkpt>
      <trkpt lat="42.79171" lon="-0.10057">
        <ele>2262</ele>
        <time>2018-10-27T22:04:50Z</time>
      </trkpt>
      <trkpt lat="42.79143" lon="-0.10026">
        <ele>2266</ele>
        <time>2018-10-27T22:05:50Z</time>
      </trkpt>
      <trkpt lat="42.7911" lon="-0.09937">
        <ele>2278</ele>
        <time>2018-10-27T22:06:50Z</time>
      </trkpt>
      <trkpt lat="42.79056" lon="-0.099">
        <ele>2287</ele>
        <time>2018-10-27T22:07:50Z</time>
      </trkpt>
      <trkpt lat="42.79038" lon="-0.09832">
        <ele>2300</ele>
        <time>2018-10-27T22:08:50Z</time>
      </trkpt>
      <trkpt lat="42.7901" lon="-0.09796">
        <ele>2311</ele>
        <time>2018-10-27T22:09:50Z</time>
      </trkpt>
      <trkpt lat="42.78992" lon="-0.09718">
        <ele>2333</ele>
        <time>2018-10-27T22:10:50Z</time>
      </trkpt>
      <trkpt lat="42.78948" lon="-0.09671">
        <ele>2335</ele>
        <time>2018-10-27T22:11:50Z</time>
      </trkpt>
      <trkpt lat="42.78916" lon="-0.09613">
        <ele>2342</ele>
        <time>2018-10-27T22:12:50Z</time>
      </trkpt>
      <trkpt lat="42.78898" lon="-0.09561">
        <ele>2353</ele>
        <time>2018-10-27T22:13:50Z</time>
      </trkpt>
      <trkpt lat="42.78859" lon="-0.09504">
        <ele>2364</ele>
        <time>2018-10-27T22:14:50Z</time>
      </trkpt>
      <trkpt lat="42.78794" lon="-0.09472">
        <ele>2366</ele>
        <time>2018-10-27T22:15:50Z</time>
      </trkpt>
      <trkpt lat="42.78744" lon="-0.09446">
        <ele>2372</ele>
        <time>2018-10-27T22:16:50Z</time>
      </trkpt>
      <trkpt lat="42.78704" lon="-0.09368">
        <ele>2389</ele>
        <time>2018-10-27T22:17:50Z</time>
      </trkpt>
      <trkpt lat="42.78643" lon="-0.09368">
        <ele>2421</ele>
        <time>2018-10-27T22:18:50Z</time>
      </trkpt>
      <trkpt lat="42.78604" lon="-0.09316">
        <ele>2443</ele>
        <time>2018-10-27T22:19:50Z</time>
      </trkpt>
      <trkpt lat="42.78568" lon="-0.09253">
        <ele>2450</ele>
        <time>2018-10-27T22:20:50Z</time>
      </trkpt>
      <trkpt lat="42.78604" lon="-0.09316">
        <ele>2443</ele>
        <time>2018-10-27T22:21:50Z</time>
      </trkpt>
      <trkpt lat="42.78643" lon="-0.09368">
        <ele>2421</ele>
        <time>2018-10-27T22:22:50Z</time>
      </trkpt>
      <trkpt lat="42.78704" lon="-0.09368">
        <ele>2389</ele>
        <time>2018-10-27T22:23:50Z</time>
      </trkpt>
      <trkpt lat="42.78744" lon="-0.09446">
        <ele>2372</ele>
        <time>2018-10-27T22:24:50Z</time>
      </trkpt>
      <trkpt lat="42.78794" lon="-0.09472">
        <ele>2366</ele>
        <time>2018-10-27T22:25:50Z</time>
      </trkpt>
      <trkpt lat="42.78859" lon="-0.09504">
        <ele>2364</ele>
        <time>2018-10-27T22:26:50Z</time>
      </trkpt>
      <trkpt lat="42.78898" lon="-0.09561">
        <ele>2353</ele>
        <time>2018-10-27T22:27:50Z</time>
      </trkpt>
      <trkpt lat="42.78916" lon="-0.09613">
        <ele>2342</ele>
        <time>2018-10-27T22:28:50Z</time>
      </trkpt>
      <trkpt lat="42.78948" lon="-0.09671">
        <ele>2335</ele>
        <time>2018-10-27T22:29:50Z</time>
      </trkpt>
      <trkpt lat="42.78992" lon="-0.09718">
        <ele>2333</ele>
        <time>2018-10-27T22:30:50Z</time>
      </trkpt>
      <trkpt lat="42.7901" lon="-0.09796">
        <ele>2311</ele>
        <time>2018-10-27T22:31:50Z</time>
      </trkpt>
      <trkpt lat="42.79038" lon="-0.09832">
        <ele>2300</ele>
        <time>2018-10-27T22:32:50Z</time>
      </trkpt>
      <trkpt lat="42.79056" lon="-0.099">
        <ele>2287</ele>
        <time>2018-10-27T22:33:50Z</time>
      </trkpt>
      <trkpt lat="42.7911" lon="-0.09937">
        <ele>2278</ele>
        <time>2018-10-27T22:34:50Z</time>
      </trkpt>
      <trkpt lat="42.79143" lon="-0.10026">
        <ele>2266</ele>
        <time>2018-10-27T22:35:50Z</time>
      </trkpt>
      <trkpt lat="42.79171" lon="-0.10057">
        <ele>2262</ele>
        <time>2018-10-27T22:36:50Z</time>
      </trkpt>
      <trkpt lat="42.79211" lon="-0.1012">
        <ele>2258</ele>
        <time>2018-10-27T22:37:50Z</time>
      </trkpt>
      <trkpt lat="42.7924" lon="-0.10187">
        <ele>2251</ele>
        <time>2018-10-27T22:38:50Z</time>
      </trkpt>
      <trkpt lat="42.79222" lon="-0.10276">
        <ele>2238</ele>
        <time>2018-10-27T22:39:50Z</time>
      </trkpt>
      <trkpt lat="42.79204" lon="-0.10349">
        <ele>2230</ele>
        <time>2018-10-27T22:40:50Z</time>
      </trkpt>
      <trkpt lat="42.79175" lon="-0.10448">
        <ele>2230</ele>
        <time>2018-10-27T22:41:50Z</time>
      </trkpt>
      <trkpt lat="42.79218" lon="-0.10506">
        <ele>2224</ele>
        <time>2018-10-27T22:42:50Z</time>
      </trkpt>
      <trkpt lat="42.79275" lon="-0.10532">
        <ele>2204</ele>
        <time>2018-10-27T22:43:50Z</time>
      </trkpt>
      <trkpt lat="42.79286" lon="-0.1061">
        <ele>2216</ele>
        <time>2018-10-27T22:44:50Z</time>
      </trkpt>
      <trkpt lat="42.79322" lon="-0.10683">
        <ele>2208</ele>
        <time>2018-10-27T22:45:50Z</time>
      </trkpt>
      <trkpt lat="42.79337" lon="-0.10756">
        <ele>2202</ele>
        <time>2018-10-27T22:46:50Z</time>
      </trkpt>
      <trkpt lat="42.79369" lon="-0.10845">
        <ele>2215</ele>
        <time>2018-10-27T22:47:50Z</time>
      </trkpt>
      <trkpt lat="42.79408" lon="-0.10892">
        <ele>2218</ele>
        <time>2018-10-27T22:48:50Z</time>
      </trkpt>
      <trkpt lat="42.7943" lon="-0.10944">
        <ele>2231</ele>
        <time>2018-10-27T22:49:50Z</time>
      </trkpt>
      <trkpt lat="42.79484" lon="-0.10965">
        <ele>2203</ele>
        <time>2018-10-27T22:50:50Z</time>
      </trkpt>
      <trkpt lat="42.79513" lon="-0.10991">
        <ele>2197</ele>
        <time>2018-10-27T22:51:50Z</time>
      </trkpt>
      <trkpt lat="42.79534" lon="-0.11038">
        <ele>2193</ele>
        <time>2018-10-27T22:52:50Z</time>
      </trkpt>
      <trkpt lat="42.79549" lon="-0.1108">
        <ele>2188</ele>
        <time>2018-10-27T22:53:50Z</time>
      </trkpt>
      <trkpt lat="42.79549" lon="-0.11148">
        <ele>2177</ele>
        <time>2018-10-27T22:54:50Z</time>
      </trkpt>
      <trkpt lat="42.79531" lon="-0.112">
        <ele>2179</ele>
        <time>2018-10-27T22:55:50Z</time>
      </trkpt>
      <trkpt lat="42.79588" lon="-0.11169">
        <ele>2150</ele>
        <time>2018-10-27T22:56:50Z</time>
      </trkpt>
      <trkpt lat="42.79556" lon="-0.11247">
        <ele>2154</ele>
        <time>2018-10-27T22:57:50Z</time>
      </trkpt>
      <trkpt lat="42.79577" lon="-0.11237">
        <ele>2141</ele>
        <time>2018-10-27T22:58:50Z</time>
      </trkpt>
      <trkpt lat="42.7961" lon="-0.11205">
        <ele>2132</ele>
        <time>2018-10-27T22:59:50Z</time>
      </trkpt>
      <trkpt lat="42.79617" lon="-0.11247">
        <ele>2124</ele>
        <time>2018-10-27T23:00:50Z</time>
      </trkpt>
      <trkpt lat="42.79638" lon="-0.11211">
        <ele>2118</ele>
        <time>2018-10-27T23:01:50Z</time>
      </trkpt>
      <trkpt lat="42.79631" lon="-0.11289">
        <ele>2125</ele>
        <time>2018-10-27T23:02:50Z</time>
      </trkpt>
      <trkpt lat="42.79671" lon="-0.11263">
        <ele>2113</ele>
        <time>2018-10-27T23:03:50Z</time>
      </trkpt>
      <trkpt lat="42.79707" lon="-0.11237">
        <ele>2114</ele>
        <time>2018-10-27T23:04:50Z</time>
      </trkpt>
      <trkpt lat="42.79717" lon="-0.11195">
        <ele>2104</ele>
        <time>2018-10-27T23:05:50Z</time>
      </trkpt>
      <trkpt lat="42.79761" lon="-0.11153">
        <ele>2092</ele>
        <time>2018-10-27T23:06:50Z</time>
      </trkpt>
      <trkpt lat="42.79804" lon="-0.11091">
        <ele>2078</ele>
        <time>2018-10-27T23:07:50Z</time>
      </trkpt>
      <trkpt lat="42.7985" lon="-0.11038">
        <ele>2072</ele>
        <time>2018-10-27T23:08:50Z</time>
      </trkpt>
      <trkpt lat="42.79886" lon="-0.10981">
        <ele>2065</ele>
        <time>2018-10-27T23:09:50Z</time>
      </trkpt>
      <trkpt lat="42.79919" lon="-0.10897">
        <ele>2023</ele>
        <time>2018-10-27T23:10:50Z</time>
      </trkpt>
      <trkpt lat="42.79969" lon="-0.10897">
        <ele>2052</ele>
        <time>2018-10-27T23:11:50Z</time>
      </trkpt>
      <trkpt lat="42.80016" lon="-0.10871">
        <ele>2054</ele>
        <time>2018-10-27T23:12:50Z</time>
      </trkpt>
      <trkpt lat="42.80059" lon="-0.10845">
        <ele>2050</ele>
        <time>2018-10-27T23:13:50Z</time>
      </trkpt>
      <trkpt lat="42.80098" lon="-0.10814">
        <ele>2044</ele>
        <time>2018-10-27T23:14:50Z</time>
      </trkpt>
      <trkpt lat="42.80138" lon="-0.10777">
        <ele>2033</ele>
        <time>2018-10-27T23:15:50Z</time>
      </trkpt>
      <trkpt lat="42.80188" lon="-0.10741">
        <ele>2026</ele>
        <time>2018-10-27T23:16:50Z</time>
      </trkpt>
      <trkpt lat="42.80217" lon="-0.10709">
        <ele>2019</ele>
        <time>2018-10-27T23:17:50Z</time>
      </trkpt>
      <trkpt lat="42.80242" lon="-0.10683">
        <ele>2009</ele>
        <time>2018-10-27T23:18:50Z</time>
      </trkpt>
      <trkpt lat="42.80274" lon="-0.10642">
        <ele>1991</ele>
        <time>2018-10-27T23:19:50Z</time>
      </trkpt>
      <trkpt lat="42.80332" lon="-0.1061">
        <ele>1980</ele>
        <time>2018-10-27T23:20:50Z</time>
      </trkpt>
      <trkpt lat="42.80368" lon="-0.10584">
        <ele>1972</ele>
        <time>2018-10-27T23:21:50Z</time>
      </trkpt>
      <trkpt lat="42.80361" lon="-0.10532">
        <ele>1947</ele>
        <time>2018-10-27T23:22:50Z</time>
      </trkpt>
      <trkpt lat="42.80346" lon="-0.10501">
        <ele>1930</ele>
        <time>2018-10-27T23:23:50Z</time>
      </trkpt>
      <trkpt lat="42.80411" lon="-0.10501">
        <ele>1940</ele>
        <time>2018-10-27T23:24:50Z</time>
      </trkpt>
      <trkpt lat="42.80454" lon="-0.10501">
        <ele>1945</ele>
        <time>2018-10-27T23:25:50Z</time>
      </trkpt>
      <trkpt lat="42.80497" lon="-0.10459">
        <ele>1925</ele>
        <time>2018-10-27T23:26:50Z</time>
      </trkpt>
      <trkpt lat="42.80547" lon="-0.10433">
        <ele>1921</ele>
        <time>2018-10-27T23:27:50Z</time>
      </trkpt>
      <trkpt lat="42.80605" lon="-0.10391">
        <ele>1910</ele>
        <time>2018-10-27T23:28:50Z</time>
      </trkpt>
      <trkpt lat="42.80662" lon="-0.10344">
        <ele>1898</ele>
        <time>2018-10-27T23:29:50Z</time>
      </trkpt>
      <trkpt lat="42.80716" lon="-0.10281">
        <ele>1882</ele>
        <time>2018-10-27T23:30:50Z</time>
      </trkpt>
      <trkpt lat="42.80688" lon="-0.10287">
        <ele>1877</ele>
        <time>2018-10-27T23:31:50Z</time>
      </trkpt>
      <trkpt lat="42.80709" lon="-0.10198">
        <ele>1846</ele>
        <time>2018-10-27T23:32:50Z</time>
      </trkpt>
      <trkpt lat="42.80749" lon="-0.1014">
        <ele>1839</ele>
        <time>2018-10-27T23:33:50Z</time>
      </trkpt>
      <trkpt lat="42.80749" lon="-0.10067">
        <ele>1825</ele>
        <time>2018-10-27T23:34:50Z</time>
      </trkpt>
      <trkpt lat="42.80777" lon="-0.09994">
        <ele>1811</ele>
        <time>2018-10-27T23:35:50Z</time>
      </trkpt>
      <trkpt lat="42.80803" lon="-0.09926">
        <ele>1806</ele>
        <time>2018-10-27T23:36:50Z</time>
      </trkpt>
      <trkpt lat="42.80835" lon="-0.09963">
        <ele>1805</ele>
        <time>2018-10-27T23:37:50Z</time>
      </trkpt>
      <trkpt lat="42.8086" lon="-0.09984">
        <ele>1802</ele>
        <time>2018-10-27T23:38:50Z</time>
      </trkpt>
      <trkpt lat="42.80892" lon="-0.09979">
        <ele>1797</ele>
        <time>2018-10-27T23:39:50Z</time>
      </trkpt>
      <trkpt lat="42.8091" lon="-0.10015">
        <ele>1799</ele>
        <time>2018-10-27T23:40:50Z</time>
      </trkpt>
      <trkpt lat="42.80954" lon="-0.1002">
        <ele>1796</ele>
        <time>2018-10-27T23:41:50Z</time>
      </trkpt>
      <trkpt lat="42.80979" lon="-0.09994">
        <ele>1787</ele>
        <time>2018-10-27T23:42:50Z</time>
      </trkpt>
      <trkpt lat="42.81022" lon="-0.09958">
        <ele>1777</ele>
        <time>2018-10-27T23:43:50Z</time>
      </trkpt>
      <trkpt lat="42.81072" lon="-0.09947">
        <ele>1770</ele>
        <time>2018-10-27T23:44:50Z</time>
      </trkpt>
      <trkpt lat="42.81112" lon="-0.09953">
        <ele>1766</ele>
        <time>2018-10-27T23:45:50Z</time>
      </trkpt>
      <trkpt lat="42.81148" lon="-0.09973">
        <ele>1765</ele>
        <time>2018-10-27T23:46:50Z</time>
      </trkpt>
      <trkpt lat="42.81173" lon="-0.09958">
        <ele>1757</ele>
        <time>2018-10-27T23:47:50Z</time>
      </trkpt>
      <trkpt lat="42.81198" lon="-0.09937">
        <ele>1748</ele>
        <time>2018-10-27T23:48:50Z</time>
      </trkpt>
      <trkpt lat="42.81245" lon="-0.099">
        <ele>1735</ele>
        <time>2018-10-27T23:49:50Z</time>
      </trkpt>
      <trkpt lat="42.81295" lon="-0.099">
        <ele>1730</ele>
        <time>2018-10-27T23:50:50Z</time>
      </trkpt>
      <trkpt lat="42.81327" lon="-0.09895">
        <ele>1726</ele>
        <time>2018-10-27T23:51:50Z</time>
      </trkpt>
      <trkpt lat="42.81352" lon="-0.09874">
        <ele>1722</ele>
        <time>2018-10-27T23:52:50Z</time>
      </trkpt>
      <trkpt lat="42.81403" lon="-0.09885">
        <ele>1717</ele>
        <time>2018-10-27T23:53:50Z</time>
      </trkpt>
      <trkpt lat="42.81435" lon="-0.09874">
        <ele>1707</ele>
        <time>2018-10-27T23:54:50Z</time>
      </trkpt>
      <trkpt lat="42.81467" lon="-0.09874">
        <ele>1695</ele>
        <time>2018-10-27T23:55:50Z</time>
      </trkpt>
      <trkpt lat="42.815" lon="-0.09848">
        <ele>1679</ele>
        <time>2018-10-27T23:56:50Z</time>
      </trkpt>
      <trkpt lat="42.81539" lon="-0.09864">
        <ele>1666</ele>
        <time>2018-10-27T23:57:50Z</time>
      </trkpt>
      <trkpt lat="42.8159" lon="-0.09874">
        <ele>1648</ele>
        <time>2018-10-27T23:58:50Z</time>
      </trkpt>
      <trkpt lat="42.81629" lon="-0.09874">
        <ele>1641</ele>
        <time>2018-10-27T23:59:50Z</time>
      </trkpt>
      <trkpt lat="42.81661" lon="-0.09832">
        <ele>1632</ele>
        <time>2018-10-28T00:00:50Z</time>
      </trkpt>
      <trkpt lat="42.81708" lon="-0.09832">
        <ele>1627</ele>
        <time>2018-10-28T00:01:50Z</time>
      </trkpt>
      <trkpt lat="42.81762" lon="-0.09832">
        <ele>1622</ele>
        <time>2018-10-28T00:02:50Z</time>
      </trkpt>
      <trkpt lat="42.81816" lon="-0.09801">
        <ele>1618</ele>
        <time>2018-10-28T00:03:50Z</time>
      </trkpt>
      <trkpt lat="42.81841" lon="-0.09801">
        <ele>1615</ele>
        <time>2018-10-28T00:04:50Z</time>
      </trkpt>
      <trkpt lat="42.81866" lon="-0.09806">
        <ele>1613</ele>
        <time>2018-10-28T00:05:50Z</time>
      </trkpt>
      <trkpt lat="42.81895" lon="-0.09843">
        <ele>1613</ele>
        <time>2018-10-28T00:06:50Z</time>
      </trkpt>
      <trkpt lat="42.81956" lon="-0.09848">
        <ele>1610</ele>
        <time>2018-10-28T00:07:50Z</time>
      </trkpt>
      <trkpt lat="42.81999" lon="-0.09806">
        <ele>1602</ele>
        <time>2018-10-28T00:08:50Z</time>
      </trkpt>
      <trkpt lat="42.82049" lon="-0.09806">
        <ele>1594</ele>
        <time>2018-10-28T00:09:50Z</time>
      </trkpt>
      <trkpt lat="42.82096" lon="-0.09791">
        <ele>1585</ele>
        <time>2018-10-28T00:10:50Z</time>
      </trkpt>
      <trkpt lat="42.82175" lon="-0.09775">
        <ele>1575</ele>
        <time>2018-10-28T00:11:50Z</time>
      </trkpt>
      <trkpt lat="42.82222" lon="-0.09749">
        <ele>1567</ele>
        <time>2018-10-28T00:12:50Z</time>
      </trkpt>
      <trkpt lat="42.82261" lon="-0.09728">
        <ele>1565</ele>
        <time>2018-10-28T00:13:50Z</time>
      </trkpt>
      <trkpt lat="42.82319" lon="-0.09723">
        <ele>1565</ele>
        <time>2018-10-28T00:14:50Z</time>
      </trkpt>
      <trkpt lat="42.82373" lon="-0.09686">
        <ele>1562</ele>
        <time>2018-10-28T00:15:50Z</time>
      </trkpt>
      <trkpt lat="42.82384" lon="-0.09645">
        <ele>1561</ele>
        <time>2018-10-28T00:16:50Z</time>
      </trkpt>
      <trkpt lat="42.8242" lon="-0.09634">
        <ele>1560</ele>
        <time>2018-10-28T00:17:50Z</time>
      </trkpt>
      <trkpt lat="42.82481" lon="-0.09608">
        <ele>1556</ele>
        <time>2018-10-28T00:18:50Z</time>
      </trkpt>
      <trkpt lat="42.82545" lon="-0.09598">
        <ele>1555</ele>
        <time>2018-10-28T00:19:50Z</time>
      </trkpt>
      <trkpt lat="42.82599" lon="-0.09629">
        <ele>1553</ele>
        <time>2018-10-28T00:20:50Z</time>
      </trkpt>
      <trkpt lat="42.82664" lon="-0.09608">
        <ele>1547</ele>
        <time>2018-10-28T00:21:50Z</time>
      </trkpt>
      <trkpt lat="42.82729" lon="-0.09577">
        <ele>1551</ele>
        <time>2018-10-28T00:22:50Z</time>
      </trkpt>
      <trkpt lat="42.82775" lon="-0.09587">
        <ele>1551</ele>
        <time>2018-10-28T00:23:50Z</time>
      </trkpt>
      <trkpt lat="42.82829" lon="-0.09639">
        <ele>1545</ele>
        <time>2018-10-28T00:24:50Z</time>
      </trkpt>
      <trkpt lat="42.82883" lon="-0.09639">
        <ele>1538</ele>
        <time>2018-10-28T00:25:50Z</time>
      </trkpt>
      <trkpt lat="42.82973" lon="-0.09655">
        <ele>1528</ele>
        <time>2018-10-28T00:26:50Z</time>
      </trkpt>
      <trkpt lat="42.8302" lon="-0.09639">
        <ele>1529</ele>
        <time>2018-10-28T00:27:50Z</time>
      </trkpt>
      <trkpt lat="42.8307" lon="-0.09603">
        <ele>1531</ele>
        <time>2018-10-28T00:28:50Z</time>
      </trkpt>
      <trkpt lat="42.83142" lon="-0.09587">
        <ele>1524</ele>
        <time>2018-10-28T00:29:50Z</time>
      </trkpt>
      <trkpt lat="42.83206" lon="-0.09582">
        <ele>1517</ele>
        <time>2018-10-28T00:30:50Z</time>
      </trkpt>
      <trkpt lat="42.8326" lon="-0.09598">
        <ele>1509</ele>
        <time>2018-10-28T00:31:50Z</time>
      </trkpt>
      <trkpt lat="42.83321" lon="-0.09598">
        <ele>1505</ele>
        <time>2018-10-28T00:32:50Z</time>
      </trkpt>
      <trkpt lat="42.83415" lon="-0.09603">
        <ele>1501</ele>
        <time>2018-10-28T00:33:50Z</time>
      </trkpt>
      <trkpt lat="42.83472" lon="-0.09618">
        <ele>1497</ele>
        <time>2018-10-28T00:34:50Z</time>
      </trkpt>
      <trkpt lat="42.83523" lon="-0.09655">
        <ele>1489</ele>
        <time>2018-10-28T00:35:50Z</time>
      </trkpt>
      <trkpt lat="42.83602" lon="-0.09655">
        <ele>1488</ele>
        <time>2018-10-28T00:36:50Z</time>
      </trkpt>
      <trkpt lat="42.83656" lon="-0.09665">
        <ele>1481</ele>
        <time>2018-10-28T00:37:50Z</time>
      </trkpt>
      <trkpt lat="42.83717" lon="-0.0966">
        <ele>1477</ele>
        <time>2018-10-28T00:38:50Z</time>
      </trkpt>
      <trkpt lat="42.83763" lon="-0.09603">
        <ele>1482</ele>
        <time>2018-10-28T00:39:50Z</time>
      </trkpt>
      <trkpt lat="42.83842" lon="-0.09608">
        <ele>1475</ele>
        <time>2018-10-28T00:40:50Z</time>
      </trkpt>
      <trkpt lat="42.83893" lon="-0.09608">
        <ele>1476</ele>
        <time>2018-10-28T00:41:50Z</time>
      </trkpt>
      <trkpt lat="42.83961" lon="-0.09618">
        <ele>1478</ele>
        <time>2018-10-28T00:42:50Z</time>
      </trkpt>
      <trkpt lat="42.84015" lon="-0.09655">
        <ele>1472</ele>
        <time>2018-10-28T00:43:50Z</time>
      </trkpt>
      <trkpt lat="42.84083" lon="-0.09665">
        <ele>1468</ele>
        <time>2018-10-28T00:44:50Z</time>
      </trkpt>
      <trkpt lat="42.84119" lon="-0.09697">
        <ele>1461</ele>
        <time>2018-10-28T00:45:50Z</time>
      </trkpt>
      <trkpt lat="42.84173" lon="-0.09749">
        <ele>1448</ele>
        <time>2018-10-28T00:46:50Z</time>
      </trkpt>
      <trkpt lat="42.84198" lon="-0.09686">
        <ele>1452</ele>
        <time>2018-10-28T00:47:50Z</time>
      </trkpt>
      <trkpt lat="42.84238" lon="-0.0966">
        <ele>1449</ele>
        <time>2018-10-28T00:48:50Z</time>
      </trkpt>
      <trkpt lat="42.8431" lon="-0.0966">
        <ele>1446</ele>
        <time>2018-10-28T00:49:50Z</time>
      </trkpt>
      <trkpt lat="42.84364" lon="-0.09671">
        <ele>1439</ele>
        <time>2018-10-28T00:50:50Z</time>
      </trkpt>
      <trkpt lat="42.84435" lon="-0.0965">
        <ele>1434</ele>
        <time>2018-10-28T00:51:50Z</time>
      </trkpt>
      <trkpt lat="42.84514" lon="-0.09634">
        <ele>1422</ele>
        <time>2018-10-28T00:52:50Z</time>
      </trkpt>
      <trkpt lat="42.84565" lon="-0.09629">
        <ele>1417</ele>
        <time>2018-10-28T00:53:50Z</time>
      </trkpt>
      <trkpt lat="42.84629" lon="-0.09629">
        <ele>1411</ele>
        <time>2018-10-28T00:54:50Z</time>
      </trkpt>
      <trkpt lat="42.84716" lon="-0.09629">
        <ele>1408</ele>
        <time>2018-10-28T00:55:50Z</time>
      </trkpt>
      <trkpt lat="42.84755" lon="-0.0965">
        <ele>1403</ele>
        <time>2018-10-28T00:56:50Z</time>
      </trkpt>
      <trkpt lat="42.84802" lon="-0.09665">
        <ele>1398</ele>
        <time>2018-10-28T00:57:50Z</time>
      </trkpt>
      <trkpt lat="42.84859" lon="-0.09681">
        <ele>1396</ele>
        <time>2018-10-28T00:58:50Z</time>
      </trkpt>
      <trkpt lat="42.84924" lon="-0.09728">
        <ele>1390</ele>
        <time>2018-10-28T00:59:50Z</time>
      </trkpt>
      <trkpt lat="42.85" lon="-0.09759">
        <ele>1384</ele>
        <time>2018-10-28T01:00:50Z</time>
      </trkpt>
      <trkpt lat="42.85064" lon="-0.09785">
        <ele>1380</ele>
        <time>2018-10-28T01:01:50Z</time>
      </trkpt>
      <trkpt lat="42.85129" lon="-0.09785">
        <ele>1379</ele>
        <time>2018-10-28T01:02:50Z</time>
      </trkpt>
      <trkpt lat="42.85201" lon="-0.0977">
        <ele>1378</ele>
        <time>2018-10-28T01:03:50Z</time>
      </trkpt>
      <trkpt lat="42.85291" lon="-0.09759">
        <ele>1374</ele>
        <time>2018-10-28T01:04:50Z</time>
      </trkpt>
      <trkpt lat="42.85373" lon="-0.09759">
        <ele>1371</ele>
        <time>2018-10-28T01:05:50Z</time>
      </trkpt>
    </trkseg>
  </trk>
</gpx>